sensor_id;sensor_type;location;lat;lon;timestamp;temperature;humidity
9049;DHT22;4559;47.252;9.592;2022-11-09T00:01:30;9.20;95.00
9049;DHT22;4559;47.252;9.592;2022-11-09T00:03:58;9.20;95.20
9049;DHT22;4559;47.252;9.592;2022-11-09T00:06:24;9.20;95.30
9049;DHT22;4559;47.252;9.592;2022-11-09T00:08:51;9.10;95.40
9049;DHT22;4559;47.252;9.592;2022-11-09T00:11:17;9.10;95.60
9049;DHT22;4559;47.252;9.592;2022-11-09T00:13:43;9.00;95.80
9049;DHT22;4559;47.252;9.592;2022-11-09T00:16:11;9.00;96.00
9049;DHT22;4559;47.252;9.592;2022-11-09T00:18:38;9.00;96.20
9049;DHT22;4559;47.252;9.592;2022-11-09T00:21:10;8.90;96.10
9049;DHT22;4559;47.252;9.592;2022-11-09T00:23:36;8.90;96.10
9049;DHT22;4559;47.252;9.592;2022-11-09T00:26:03;8.80;96.20
9049;DHT22;4559;47.252;9.592;2022-11-09T00:28:29;8.80;96.50
9049;DHT22;4559;47.252;9.592;2022-11-09T00:31:02;8.70;96.50
9049;DHT22;4559;47.252;9.592;2022-11-09T00:33:28;8.70;96.50
9049;DHT22;4559;47.252;9.592;2022-11-09T00:35:54;8.70;96.40
9049;DHT22;4559;47.252;9.592;2022-11-09T00:38:20;8.70;96.40
9049;DHT22;4559;47.252;9.592;2022-11-09T00:40:46;8.60;96.40
9049;DHT22;4559;47.252;9.592;2022-11-09T00:43:11;8.70;96.50
9049;DHT22;4559;47.252;9.592;2022-11-09T00:45:37;8.70;96.40
9049;DHT22;4559;47.252;9.592;2022-11-09T00:48:05;8.70;96.00
9049;DHT22;4559;47.252;9.592;2022-11-09T00:50:31;8.70;95.70
9049;DHT22;4559;47.252;9.592;2022-11-09T00:52:58;8.80;95.60
9049;DHT22;4559;47.252;9.592;2022-11-09T00:55:23;8.70;95.70
9049;DHT22;4559;47.252;9.592;2022-11-09T00:57:49;8.70;95.80
9049;DHT22;4559;47.252;9.592;2022-11-09T01:00:21;8.70;95.60
9049;DHT22;4559;47.252;9.592;2022-11-09T01:02:49;8.80;95.30
9049;DHT22;4559;47.252;9.592;2022-11-09T01:05:14;8.80;94.90
9049;DHT22;4559;47.252;9.592;2022-11-09T01:07:40;8.90;95.00
9049;DHT22;4559;47.252;9.592;2022-11-09T01:10:06;8.90;95.10
9049;DHT22;4559;47.252;9.592;2022-11-09T01:12:32;8.90;95.10
9049;DHT22;4559;47.252;9.592;2022-11-09T01:14:58;8.90;95.10
9049;DHT22;4559;47.252;9.592;2022-11-09T01:17:23;8.90;95.10
9049;DHT22;4559;47.252;9.592;2022-11-09T01:19:49;8.90;95.10
9049;DHT22;4559;47.252;9.592;2022-11-09T01:22:16;8.90;95.10
9049;DHT22;4559;47.252;9.592;2022-11-09T01:24:41;8.90;95.20
9049;DHT22;4559;47.252;9.592;2022-11-09T01:27:07;8.90;95.30
9049;DHT22;4559;47.252;9.592;2022-11-09T01:29:32;8.90;95.30
9049;DHT22;4559;47.252;9.592;2022-11-09T01:31:58;8.90;95.40
9049;DHT22;4559;47.252;9.592;2022-11-09T01:34:24;8.80;95.60
9049;DHT22;4559;47.252;9.592;2022-11-09T01:36:52;8.80;95.70
9049;DHT22;4559;47.252;9.592;2022-11-09T01:39:18;8.80;95.80
9049;DHT22;4559;47.252;9.592;2022-11-09T01:41:44;8.70;95.80
9049;DHT22;4559;47.252;9.592;2022-11-09T01:44:15;8.70;95.70
9049;DHT22;4559;47.252;9.592;2022-11-09T01:52:26;8.70;95.70
9049;DHT22;4559;47.252;9.592;2022-11-09T01:55:01;8.70;95.60
9049;DHT22;4559;47.252;9.592;2022-11-09T01:57:30;8.70;95.20
9049;DHT22;4559;47.252;9.592;2022-11-09T02:00:03;8.70;95.10
9049;DHT22;4559;47.252;9.592;2022-11-09T02:02:30;8.80;94.80
9049;DHT22;4559;47.252;9.592;2022-11-09T02:05:02;8.80;94.80
9049;DHT22;4559;47.252;9.592;2022-11-09T02:07:29;8.90;94.70
9049;DHT22;4559;47.252;9.592;2022-11-09T02:10:28;8.90;94.90
9049;DHT22;4559;47.252;9.592;2022-11-09T02:12:57;8.80;94.80
9049;DHT22;4559;47.252;9.592;2022-11-09T02:15:24;8.80;94.70
9049;DHT22;4559;47.252;9.592;2022-11-09T02:17:52;8.80;94.70
9049;DHT22;4559;47.252;9.592;2022-11-09T02:20:19;8.90;94.40
9049;DHT22;4559;47.252;9.592;2022-11-09T02:22:45;8.90;94.20
9049;DHT22;4559;47.252;9.592;2022-11-09T02:25:13;9.00;93.50
9049;DHT22;4559;47.252;9.592;2022-11-09T02:27:41;9.20;93.40
9049;DHT22;4559;47.252;9.592;2022-11-09T02:30:07;9.30;93.30
9049;DHT22;4559;47.252;9.592;2022-11-09T02:32:34;9.30;93.50
9049;DHT22;4559;47.252;9.592;2022-11-09T02:34:59;9.40;93.00
9049;DHT22;4559;47.252;9.592;2022-11-09T02:39:55;9.50;92.80
9049;DHT22;4559;47.252;9.592;2022-11-09T02:42:22;9.60;92.70
9049;DHT22;4559;47.252;9.592;2022-11-09T02:44:51;9.70;92.60
9049;DHT22;4559;47.252;9.592;2022-11-09T02:47:17;9.60;93.10
9049;DHT22;4559;47.252;9.592;2022-11-09T02:49:42;9.60;93.70
9049;DHT22;4559;47.252;9.592;2022-11-09T02:52:08;9.60;93.50
9049;DHT22;4559;47.252;9.592;2022-11-09T02:54:34;9.50;93.90
9049;DHT22;4559;47.252;9.592;2022-11-09T02:56:59;9.40;94.00
9049;DHT22;4559;47.252;9.592;2022-11-09T02:59:25;9.40;94.00
9049;DHT22;4559;47.252;9.592;2022-11-09T03:01:51;9.30;94.30
9049;DHT22;4559;47.252;9.592;2022-11-09T03:04:16;9.10;94.40
9049;DHT22;4559;47.252;9.592;2022-11-09T03:06:42;9.10;94.50
9049;DHT22;4559;47.252;9.592;2022-11-09T03:09:09;9.10;94.60
9049;DHT22;4559;47.252;9.592;2022-11-09T03:11:35;9.10;94.50
9049;DHT22;4559;47.252;9.592;2022-11-09T03:14:01;9.00;94.50
9049;DHT22;4559;47.252;9.592;2022-11-09T03:16:26;9.00;94.50
9049;DHT22;4559;47.252;9.592;2022-11-09T03:18:52;9.00;94.60
9049;DHT22;4559;47.252;9.592;2022-11-09T03:21:18;9.00;94.70
9049;DHT22;4559;47.252;9.592;2022-11-09T03:23:44;9.00;94.70
9049;DHT22;4559;47.252;9.592;2022-11-09T03:26:10;8.90;94.80
9049;DHT22;4559;47.252;9.592;2022-11-09T03:28:36;8.90;94.80
9049;DHT22;4559;47.252;9.592;2022-11-09T03:31:01;8.90;94.80
9049;DHT22;4559;47.252;9.592;2022-11-09T03:33:27;8.90;94.80
9049;DHT22;4559;47.252;9.592;2022-11-09T03:35:53;8.80;95.00
9049;DHT22;4559;47.252;9.592;2022-11-09T03:38:18;8.80;95.10
9049;DHT22;4559;47.252;9.592;2022-11-09T03:40:44;8.80;95.20
9049;DHT22;4559;47.252;9.592;2022-11-09T03:43:09;8.80;95.30
9049;DHT22;4559;47.252;9.592;2022-11-09T03:45:35;8.80;95.50
9049;DHT22;4559;47.252;9.592;2022-11-09T03:48:01;8.80;95.50
9049;DHT22;4559;47.252;9.592;2022-11-09T03:50:29;8.80;95.30
9049;DHT22;4559;47.252;9.592;2022-11-09T03:52:56;8.80;94.90
9049;DHT22;4559;47.252;9.592;2022-11-09T03:55:22;8.90;94.90
9049;DHT22;4559;47.252;9.592;2022-11-09T03:57:48;9.00;94.40
9049;DHT22;4559;47.252;9.592;2022-11-09T04:00:16;9.10;94.30
9049;DHT22;4559;47.252;9.592;2022-11-09T04:02:42;9.10;94.30
9049;DHT22;4559;47.252;9.592;2022-11-09T04:05:08;9.20;94.40
9049;DHT22;4559;47.252;9.592;2022-11-09T04:07:34;9.20;94.40
9049;DHT22;4559;47.252;9.592;2022-11-09T04:10:00;9.20;94.30
9049;DHT22;4559;47.252;9.592;2022-11-09T04:12:26;9.30;94.20
9049;DHT22;4559;47.252;9.592;2022-11-09T04:14:51;9.40;94.20
9049;DHT22;4559;47.252;9.592;2022-11-09T04:17:17;9.40;94.10
9049;DHT22;4559;47.252;9.592;2022-11-09T04:19:42;9.40;93.90
9049;DHT22;4559;47.252;9.592;2022-11-09T04:22:08;9.50;93.80
9049;DHT22;4559;47.252;9.592;2022-11-09T04:24:33;9.50;93.80
9049;DHT22;4559;47.252;9.592;2022-11-09T04:26:59;9.50;93.30
9049;DHT22;4559;47.252;9.592;2022-11-09T04:29:25;9.60;93.40
9049;DHT22;4559;47.252;9.592;2022-11-09T04:31:51;9.60;93.40
9049;DHT22;4559;47.252;9.592;2022-11-09T04:34:17;9.70;93.20
9049;DHT22;4559;47.252;9.592;2022-11-09T04:36:43;9.70;93.00
9049;DHT22;4559;47.252;9.592;2022-11-09T04:39:09;9.70;93.10
9049;DHT22;4559;47.252;9.592;2022-11-09T04:41:34;9.80;93.30
9049;DHT22;4559;47.252;9.592;2022-11-09T04:44:00;9.80;93.40
9049;DHT22;4559;47.252;9.592;2022-11-09T04:46:26;9.80;93.50
9049;DHT22;4559;47.252;9.592;2022-11-09T04:48:51;9.80;93.60
9049;DHT22;4559;47.252;9.592;2022-11-09T04:51:17;9.80;93.30
9049;DHT22;4559;47.252;9.592;2022-11-09T04:53:43;9.80;93.10
9049;DHT22;4559;47.252;9.592;2022-11-09T04:56:09;9.70;93.40
9049;DHT22;4559;47.252;9.592;2022-11-09T04:58:34;9.70;93.70
9049;DHT22;4559;47.252;9.592;2022-11-09T05:01:05;9.70;93.70
9049;DHT22;4559;47.252;9.592;2022-11-09T05:03:31;9.70;93.40
9049;DHT22;4559;47.252;9.592;2022-11-09T05:05:56;9.70;93.90
9049;DHT22;4559;47.252;9.592;2022-11-09T05:08:22;9.70;94.00
9049;DHT22;4559;47.252;9.592;2022-11-09T05:10:48;9.70;94.10
9049;DHT22;4559;47.252;9.592;2022-11-09T05:13:13;9.70;94.20
9049;DHT22;4559;47.252;9.592;2022-11-09T05:15:39;9.70;94.10
9049;DHT22;4559;47.252;9.592;2022-11-09T05:18:06;9.60;94.20
9049;DHT22;4559;47.252;9.592;2022-11-09T05:20:32;9.60;94.30
9049;DHT22;4559;47.252;9.592;2022-11-09T05:22:58;9.60;94.20
9049;DHT22;4559;47.252;9.592;2022-11-09T05:25:43;9.70;94.20
9049;DHT22;4559;47.252;9.592;2022-11-09T05:28:09;9.70;94.50
9049;DHT22;4559;47.252;9.592;2022-11-09T05:30:35;9.70;94.50
9049;DHT22;4559;47.252;9.592;2022-11-09T05:33:00;9.70;94.60
9049;DHT22;4559;47.252;9.592;2022-11-09T05:35:26;9.70;94.60
9049;DHT22;4559;47.252;9.592;2022-11-09T05:37:52;9.70;94.50
9049;DHT22;4559;47.252;9.592;2022-11-09T05:40:18;9.70;94.80
9049;DHT22;4559;47.252;9.592;2022-11-09T05:42:44;9.60;94.90
9049;DHT22;4559;47.252;9.592;2022-11-09T05:45:12;9.70;95.00
9049;DHT22;4559;47.252;9.592;2022-11-09T05:47:43;9.60;95.00
9049;DHT22;4559;47.252;9.592;2022-11-09T05:50:13;9.60;95.10
9049;DHT22;4559;47.252;9.592;2022-11-09T05:52:39;9.60;95.50
9049;DHT22;4559;47.252;9.592;2022-11-09T05:55:05;9.50;95.40
9049;DHT22;4559;47.252;9.592;2022-11-09T05:57:31;9.50;95.60
9049;DHT22;4559;47.252;9.592;2022-11-09T05:59:56;9.60;96.10
9049;DHT22;4559;47.252;9.592;2022-11-09T06:02:22;9.60;96.90
9049;DHT22;4559;47.252;9.592;2022-11-09T06:04:48;9.70;97.30
9049;DHT22;4559;47.252;9.592;2022-11-09T06:07:14;9.80;97.40
9049;DHT22;4559;47.252;9.592;2022-11-09T06:09:39;9.80;97.80
9049;DHT22;4559;47.252;9.592;2022-11-09T06:12:05;9.90;97.90
9049;DHT22;4559;47.252;9.592;2022-11-09T06:14:31;10.00;97.30
9049;DHT22;4559;47.252;9.592;2022-11-09T06:16:56;10.00;97.20
9049;DHT22;4559;47.252;9.592;2022-11-09T06:19:22;10.10;97.30
9049;DHT22;4559;47.252;9.592;2022-11-09T06:21:48;10.10;97.50
9049;DHT22;4559;47.252;9.592;2022-11-09T06:24:13;10.10;97.30
9049;DHT22;4559;47.252;9.592;2022-11-09T06:26:39;10.10;97.20
9049;DHT22;4559;47.252;9.592;2022-11-09T06:29:05;10.10;97.20
9049;DHT22;4559;47.252;9.592;2022-11-09T06:31:30;10.10;97.20
9049;DHT22;4559;47.252;9.592;2022-11-09T06:33:56;10.00;97.30
9049;DHT22;4559;47.252;9.592;2022-11-09T06:36:22;10.00;97.40
9049;DHT22;4559;47.252;9.592;2022-11-09T06:38:49;10.00;97.40
9049;DHT22;4559;47.252;9.592;2022-11-09T06:41:15;10.00;97.40
9049;DHT22;4559;47.252;9.592;2022-11-09T06:43:40;10.00;97.50
9049;DHT22;4559;47.252;9.592;2022-11-09T06:46:06;10.00;97.50
9049;DHT22;4559;47.252;9.592;2022-11-09T06:48:32;10.00;97.50
9049;DHT22;4559;47.252;9.592;2022-11-09T06:51:01;9.90;98.00
9049;DHT22;4559;47.252;9.592;2022-11-09T06:53:27;9.90;98.10
9049;DHT22;4559;47.252;9.592;2022-11-09T06:56:01;9.90;98.20
9049;DHT22;4559;47.252;9.592;2022-11-09T06:58:27;9.90;98.40
9049;DHT22;4559;47.252;9.592;2022-11-09T07:00:54;9.90;98.60
9049;DHT22;4559;47.252;9.592;2022-11-09T07:03:21;9.90;98.60
9049;DHT22;4559;47.252;9.592;2022-11-09T07:05:48;9.80;98.80
9049;DHT22;4559;47.252;9.592;2022-11-09T07:08:15;9.90;98.90
9049;DHT22;4559;47.252;9.592;2022-11-09T07:10:40;9.80;99.10
9049;DHT22;4559;47.252;9.592;2022-11-09T07:13:07;9.80;99.40
9049;DHT22;4559;47.252;9.592;2022-11-09T07:15:33;9.90;99.50
9049;DHT22;4559;47.252;9.592;2022-11-09T07:18:00;9.90;99.70
9049;DHT22;4559;47.252;9.592;2022-11-09T07:20:27;9.90;99.90
9049;DHT22;4559;47.252;9.592;2022-11-09T07:22:53;9.90;99.90
9049;DHT22;4559;47.252;9.592;2022-11-09T07:25:18;10.00;99.80
9049;DHT22;4559;47.252;9.592;2022-11-09T07:27:44;10.00;99.90
9049;DHT22;4559;47.252;9.592;2022-11-09T07:30:10;10.10;99.90
9049;DHT22;4559;47.252;9.592;2022-11-09T07:32:37;10.20;99.90
9049;DHT22;4559;47.252;9.592;2022-11-09T07:35:03;10.20;99.90
9049;DHT22;4559;47.252;9.592;2022-11-09T07:37:30;10.30;99.90
9049;DHT22;4559;47.252;9.592;2022-11-09T07:39:55;10.30;99.90
9049;DHT22;4559;47.252;9.592;2022-11-09T07:42:21;10.40;99.90
9049;DHT22;4559;47.252;9.592;2022-11-09T07:44:47;10.40;99.90
9049;DHT22;4559;47.252;9.592;2022-11-09T07:47:13;10.50;99.90
9049;DHT22;4559;47.252;9.592;2022-11-09T07:49:38;10.50;99.90
9049;DHT22;4559;47.252;9.592;2022-11-09T07:52:04;10.60;99.90
9049;DHT22;4559;47.252;9.592;2022-11-09T07:54:30;10.60;99.90
9049;DHT22;4559;47.252;9.592;2022-11-09T07:56:55;10.60;99.90
9049;DHT22;4559;47.252;9.592;2022-11-09T07:59:21;10.70;99.90
9049;DHT22;4559;47.252;9.592;2022-11-09T08:01:47;10.70;99.90
9049;DHT22;4559;47.252;9.592;2022-11-09T08:04:12;10.70;99.90
9049;DHT22;4559;47.252;9.592;2022-11-09T08:06:39;10.80;99.90
9049;DHT22;4559;47.252;9.592;2022-11-09T08:09:04;10.80;99.90
9049;DHT22;4559;47.252;9.592;2022-11-09T08:11:30;10.90;99.90
9049;DHT22;4559;47.252;9.592;2022-11-09T08:13:56;11.00;99.90
9049;DHT22;4559;47.252;9.592;2022-11-09T08:16:22;11.10;99.90
9049;DHT22;4559;47.252;9.592;2022-11-09T08:18:50;11.10;99.90
9049;DHT22;4559;47.252;9.592;2022-11-09T08:21:17;11.20;99.90
9049;DHT22;4559;47.252;9.592;2022-11-09T08:23:43;11.30;99.90
9049;DHT22;4559;47.252;9.592;2022-11-09T08:26:09;11.40;99.90
9049;DHT22;4559;47.252;9.592;2022-11-09T08:28:44;11.50;99.90
9049;DHT22;4559;47.252;9.592;2022-11-09T08:31:10;11.60;99.90
9049;DHT22;4559;47.252;9.592;2022-11-09T08:33:38;11.70;99.90
9049;DHT22;4559;47.252;9.592;2022-11-09T08:36:13;11.80;99.70
9049;DHT22;4559;47.252;9.592;2022-11-09T08:38:39;11.80;99.50
9049;DHT22;4559;47.252;9.592;2022-11-09T08:41:04;11.90;99.30
9049;DHT22;4559;47.252;9.592;2022-11-09T08:43:30;11.90;99.20
9049;DHT22;4559;47.252;9.592;2022-11-09T08:45:56;12.00;99.20
9049;DHT22;4559;47.252;9.592;2022-11-09T08:48:21;12.10;99.20
9049;DHT22;4559;47.252;9.592;2022-11-09T08:50:54;12.10;98.90
9049;DHT22;4559;47.252;9.592;2022-11-09T08:53:21;12.10;98.80
9049;DHT22;4559;47.252;9.592;2022-11-09T08:55:47;12.20;98.40
9049;DHT22;4559;47.252;9.592;2022-11-09T08:58:13;12.20;98.10
9049;DHT22;4559;47.252;9.592;2022-11-09T09:00:38;12.30;97.50
9049;DHT22;4559;47.252;9.592;2022-11-09T09:03:05;12.30;97.20
9049;DHT22;4559;47.252;9.592;2022-11-09T09:05:31;12.40;97.30
9049;DHT22;4559;47.252;9.592;2022-11-09T09:08:01;12.50;97.20
9049;DHT22;4559;47.252;9.592;2022-11-09T09:10:27;12.50;96.90
9049;DHT22;4559;47.252;9.592;2022-11-09T09:12:53;12.70;96.80
9049;DHT22;4559;47.252;9.592;2022-11-09T09:15:19;12.70;96.20
9049;DHT22;4559;47.252;9.592;2022-11-09T09:17:45;12.80;96.20
9049;DHT22;4559;47.252;9.592;2022-11-09T09:20:11;13.00;95.90
9049;DHT22;4559;47.252;9.592;2022-11-09T09:22:37;13.10;95.10
9049;DHT22;4559;47.252;9.592;2022-11-09T09:25:02;13.20;95.20
9049;DHT22;4559;47.252;9.592;2022-11-09T09:27:29;13.30;94.70
9049;DHT22;4559;47.252;9.592;2022-11-09T09:29:55;13.30;94.80
9049;DHT22;4559;47.252;9.592;2022-11-09T09:32:20;13.30;94.90
9049;DHT22;4559;47.252;9.592;2022-11-09T09:34:46;13.30;94.40
9049;DHT22;4559;47.252;9.592;2022-11-09T09:37:12;13.40;94.20
9049;DHT22;4559;47.252;9.592;2022-11-09T09:39:37;13.40;94.00
9049;DHT22;4559;47.252;9.592;2022-11-09T09:42:30;13.40;93.50
9049;DHT22;4559;47.252;9.592;2022-11-09T09:45:03;13.50;93.50
9049;DHT22;4559;47.252;9.592;2022-11-09T09:47:52;13.50;93.50
9049;DHT22;4559;47.252;9.592;2022-11-09T09:50:28;13.60;93.30
9049;DHT22;4559;47.252;9.592;2022-11-09T09:53:09;13.60;93.10
9049;DHT22;4559;47.252;9.592;2022-11-09T09:55:42;13.70;93.60
9049;DHT22;4559;47.252;9.592;2022-11-09T09:58:13;13.70;94.10
9049;DHT22;4559;47.252;9.592;2022-11-09T10:00:42;14.00;94.00
9049;DHT22;4559;47.252;9.592;2022-11-09T10:03:17;14.00;93.90
9049;DHT22;4559;47.252;9.592;2022-11-09T10:05:53;14.10;94.40
9049;DHT22;4559;47.252;9.592;2022-11-09T10:08:32;14.20;94.20
9049;DHT22;4559;47.252;9.592;2022-11-09T10:11:17;14.30;93.80
9049;DHT22;4559;47.252;9.592;2022-11-09T10:24:53;14.60;94.90
9049;DHT22;4559;47.252;9.592;2022-11-09T10:27:42;14.70;94.20
9049;DHT22;4559;47.252;9.592;2022-11-09T10:30:16;14.70;93.70
9049;DHT22;4559;47.252;9.592;2022-11-09T10:32:49;14.60;93.70
9049;DHT22;4559;47.252;9.592;2022-11-09T10:35:21;14.60;93.90
9049;DHT22;4559;47.252;9.592;2022-11-09T10:37:49;14.70;94.20
9049;DHT22;4559;47.252;9.592;2022-11-09T10:43:25;14.60;93.70
9049;DHT22;4559;47.252;9.592;2022-11-09T10:46:04;14.60;93.60
9049;DHT22;4559;47.252;9.592;2022-11-09T10:48:37;14.50;93.60
9049;DHT22;4559;47.252;9.592;2022-11-09T10:51:03;14.50;93.80
9049;DHT22;4559;47.252;9.592;2022-11-09T10:53:31;14.50;94.10
9049;DHT22;4559;47.252;9.592;2022-11-09T10:56:14;14.50;94.70
9049;DHT22;4559;47.252;9.592;2022-11-09T10:58:47;14.50;94.80
9049;DHT22;4559;47.252;9.592;2022-11-09T11:01:16;14.50;94.80
9049;DHT22;4559;47.252;9.592;2022-11-09T11:03:43;14.50;94.60
9049;DHT22;4559;47.252;9.592;2022-11-09T11:08:51;14.60;94.20
9049;DHT22;4559;47.252;9.592;2022-11-09T11:11:46;14.60;94.20
9049;DHT22;4559;47.252;9.592;2022-11-09T11:14:33;14.70;93.70
9049;DHT22;4559;47.252;9.592;2022-11-09T11:16:59;14.80;93.90
9049;DHT22;4559;47.252;9.592;2022-11-09T11:19:32;14.90;93.50
9049;DHT22;4559;47.252;9.592;2022-11-09T11:30:18;15.30;93.30
9049;DHT22;4559;47.252;9.592;2022-11-09T11:32:44;15.30;93.70
9049;DHT22;4559;47.252;9.592;2022-11-09T11:35:28;15.40;93.40
9049;DHT22;4559;47.252;9.592;2022-11-09T11:38:17;15.40;94.00
9049;DHT22;4559;47.252;9.592;2022-11-09T11:41:14;15.50;94.90
9049;DHT22;4559;47.252;9.592;2022-11-09T11:43:52;15.50;95.20
9049;DHT22;4559;47.252;9.592;2022-11-09T11:55:57;15.80;95.50
9049;DHT22;4559;47.252;9.592;2022-11-09T12:01:26;15.90;95.00
9049;DHT22;4559;47.252;9.592;2022-11-09T12:04:11;15.90;95.10
9049;DHT22;4559;47.252;9.592;2022-11-09T12:12:11;15.90;94.90
9049;DHT22;4559;47.252;9.592;2022-11-09T12:23:19;15.80;95.30
9049;DHT22;4559;47.252;9.592;2022-11-09T12:25:57;15.80;95.00
9049;DHT22;4559;47.252;9.592;2022-11-09T12:36:20;15.70;94.60
9049;DHT22;4559;47.252;9.592;2022-11-09T12:38:57;15.70;94.40
9049;DHT22;4559;47.252;9.592;2022-11-09T12:41:28;15.70;94.90
9049;DHT22;4559;47.252;9.592;2022-11-09T12:46:47;15.60;94.50
9049;DHT22;4559;47.252;9.592;2022-11-09T12:49:36;15.60;94.80
9049;DHT22;4559;47.252;9.592;2022-11-09T12:52:04;15.60;95.20
9049;DHT22;4559;47.252;9.592;2022-11-09T12:54:31;15.60;95.60
9049;DHT22;4559;47.252;9.592;2022-11-09T12:57:00;15.50;95.70
9049;DHT22;4559;47.252;9.592;2022-11-09T13:01:57;15.40;95.90
9049;DHT22;4559;47.252;9.592;2022-11-09T13:04:24;15.30;95.80
9049;DHT22;4559;47.252;9.592;2022-11-09T13:07:17;15.30;96.10
9049;DHT22;4559;47.252;9.592;2022-11-09T13:09:43;15.20;96.30
9049;DHT22;4559;47.252;9.592;2022-11-09T13:12:32;15.20;96.60
9049;DHT22;4559;47.252;9.592;2022-11-09T13:15:21;15.10;96.60
9049;DHT22;4559;47.252;9.592;2022-11-09T13:23:01;15.00;96.70
9049;DHT22;4559;47.252;9.592;2022-11-09T13:30:54;14.80;97.10
9049;DHT22;4559;47.252;9.592;2022-11-09T13:33:32;14.80;97.40
9049;DHT22;4559;47.252;9.592;2022-11-09T13:36:12;14.80;97.70
9049;DHT22;4559;47.252;9.592;2022-11-09T13:38:38;14.70;98.20
9049;DHT22;4559;47.252;9.592;2022-11-09T13:44:13;14.60;98.70
9049;DHT22;4559;47.252;9.592;2022-11-09T13:46:40;14.60;99.00
9049;DHT22;4559;47.252;9.592;2022-11-09T13:49:35;14.60;99.30
9049;DHT22;4559;47.252;9.592;2022-11-09T13:52:02;14.50;99.60
9049;DHT22;4559;47.252;9.592;2022-11-09T13:54:35;14.50;99.80
9049;DHT22;4559;47.252;9.592;2022-11-09T13:57:04;14.50;99.90
9049;DHT22;4559;47.252;9.592;2022-11-09T13:59:33;14.40;99.90
9049;DHT22;4559;47.252;9.592;2022-11-09T14:02:01;14.40;99.90
9049;DHT22;4559;47.252;9.592;2022-11-09T14:04:37;14.30;99.90
9049;DHT22;4559;47.252;9.592;2022-11-09T14:07:05;14.30;99.90
9049;DHT22;4559;47.252;9.592;2022-11-09T14:10:00;14.30;99.90
9049;DHT22;4559;47.252;9.592;2022-11-09T14:12:40;14.30;99.90
9049;DHT22;4559;47.252;9.592;2022-11-09T14:22:53;14.10;99.90
9049;DHT22;4559;47.252;9.592;2022-11-09T14:25:21;14.10;99.90
9049;DHT22;4559;47.252;9.592;2022-11-09T14:27:49;14.00;99.90
9049;DHT22;4559;47.252;9.592;2022-11-09T14:30:23;14.00;99.90
9049;DHT22;4559;47.252;9.592;2022-11-09T14:32:51;13.90;99.90
9049;DHT22;4559;47.252;9.592;2022-11-09T14:35:35;13.90;99.90
9049;DHT22;4559;47.252;9.592;2022-11-09T14:38:14;13.90;99.90
9049;DHT22;4559;47.252;9.592;2022-11-09T14:40:43;13.90;99.90
9049;DHT22;4559;47.252;9.592;2022-11-09T14:46:02;13.80;99.90
9049;DHT22;4559;47.252;9.592;2022-11-09T14:48:29;13.80;99.90
9049;DHT22;4559;47.252;9.592;2022-11-09T14:50:58;13.70;99.90
9049;DHT22;4559;47.252;9.592;2022-11-09T14:53:30;13.70;99.90
9049;DHT22;4559;47.252;9.592;2022-11-09T14:55:59;13.60;99.90
9049;DHT22;4559;47.252;9.592;2022-11-09T14:58:27;13.60;99.90
9049;DHT22;4559;47.252;9.592;2022-11-09T15:06:51;13.50;99.90
9049;DHT22;4559;47.252;9.592;2022-11-09T15:09:20;13.40;99.90
9049;DHT22;4559;47.252;9.592;2022-11-09T15:11:47;13.40;99.90
9049;DHT22;4559;47.252;9.592;2022-11-09T15:16:42;13.30;99.90
9049;DHT22;4559;47.252;9.592;2022-11-09T15:19:23;13.30;99.90
9049;DHT22;4559;47.252;9.592;2022-11-09T15:21:51;13.20;99.90
9049;DHT22;4559;47.252;9.592;2022-11-09T15:24:18;13.20;99.90
9049;DHT22;4559;47.252;9.592;2022-11-09T15:26:47;13.10;99.90
9049;DHT22;4559;47.252;9.592;2022-11-09T15:32:10;13.10;99.90
9049;DHT22;4559;47.252;9.592;2022-11-09T15:34:38;13.10;99.90
9049;DHT22;4559;47.252;9.592;2022-11-09T15:37:30;13.00;99.90
9049;DHT22;4559;47.252;9.592;2022-11-09T15:39:57;13.00;99.90
9049;DHT22;4559;47.252;9.592;2022-11-09T15:42:24;13.00;99.90
9049;DHT22;4559;47.252;9.592;2022-11-09T15:44:56;12.90;99.90
9049;DHT22;4559;47.252;9.592;2022-11-09T15:49:57;12.90;99.90
9049;DHT22;4559;47.252;9.592;2022-11-09T15:52:23;12.80;99.90
9049;DHT22;4559;47.252;9.592;2022-11-09T15:54:48;12.80;99.90
9049;DHT22;4559;47.252;9.592;2022-11-09T15:57:16;12.80;99.90
9049;DHT22;4559;47.252;9.592;2022-11-09T15:59:44;12.80;99.90
9049;DHT22;4559;47.252;9.592;2022-11-09T16:02:11;12.80;99.90
9049;DHT22;4559;47.252;9.592;2022-11-09T16:04:37;12.70;99.90
9049;DHT22;4559;47.252;9.592;2022-11-09T16:07:03;12.70;99.90
9049;DHT22;4559;47.252;9.592;2022-11-09T16:09:29;12.70;99.90
9049;DHT22;4559;47.252;9.592;2022-11-09T16:11:54;12.60;99.90
9049;DHT22;4559;47.252;9.592;2022-11-09T16:14:20;12.60;99.90
9049;DHT22;4559;47.252;9.592;2022-11-09T16:16:46;12.60;99.90
9049;DHT22;4559;47.252;9.592;2022-11-09T16:19:13;12.60;99.90
9049;DHT22;4559;47.252;9.592;2022-11-09T16:21:39;12.50;99.90
9049;DHT22;4559;47.252;9.592;2022-11-09T16:24:05;12.50;99.90
9049;DHT22;4559;47.252;9.592;2022-11-09T16:26:30;12.50;99.90
9049;DHT22;4559;47.252;9.592;2022-11-09T16:28:56;12.40;99.90
9049;DHT22;4559;47.252;9.592;2022-11-09T16:31:22;12.40;99.90
9049;DHT22;4559;47.252;9.592;2022-11-09T16:33:48;12.40;99.90
9049;DHT22;4559;47.252;9.592;2022-11-09T16:36:18;12.30;99.90
9049;DHT22;4559;47.252;9.592;2022-11-09T16:38:48;12.30;99.90
9049;DHT22;4559;47.252;9.592;2022-11-09T16:41:15;12.30;99.90
9049;DHT22;4559;47.252;9.592;2022-11-09T16:43:42;12.30;99.90
9049;DHT22;4559;47.252;9.592;2022-11-09T16:46:10;12.30;99.90
9049;DHT22;4559;47.252;9.592;2022-11-09T16:48:36;12.20;99.90
9049;DHT22;4559;47.252;9.592;2022-11-09T16:51:02;12.20;99.90
9049;DHT22;4559;47.252;9.592;2022-11-09T16:53:28;12.20;99.90
9049;DHT22;4559;47.252;9.592;2022-11-09T16:55:54;12.20;99.90
9049;DHT22;4559;47.252;9.592;2022-11-09T16:58:20;12.20;99.90
9049;DHT22;4559;47.252;9.592;2022-11-09T17:00:47;12.20;99.90
9049;DHT22;4559;47.252;9.592;2022-11-09T17:03:14;12.20;99.90
9049;DHT22;4559;47.252;9.592;2022-11-09T17:05:40;12.20;99.90
9049;DHT22;4559;47.252;9.592;2022-11-09T17:08:06;12.10;99.90
9049;DHT22;4559;47.252;9.592;2022-11-09T17:10:32;12.10;99.90
9049;DHT22;4559;47.252;9.592;2022-11-09T17:12:58;12.10;99.90
9049;DHT22;4559;47.252;9.592;2022-11-09T17:15:24;12.00;99.90
9049;DHT22;4559;47.252;9.592;2022-11-09T17:17:50;12.00;99.90
9049;DHT22;4559;47.252;9.592;2022-11-09T17:20:15;12.00;99.90
9049;DHT22;4559;47.252;9.592;2022-11-09T17:22:41;12.00;99.90
9049;DHT22;4559;47.252;9.592;2022-11-09T17:25:07;12.00;99.90
9049;DHT22;4559;47.252;9.592;2022-11-09T17:27:33;11.90;99.90
9049;DHT22;4559;47.252;9.592;2022-11-09T17:29:58;11.90;99.90
9049;DHT22;4559;47.252;9.592;2022-11-09T17:32:24;11.90;99.90
9049;DHT22;4559;47.252;9.592;2022-11-09T17:34:53;11.90;99.90
9049;DHT22;4559;47.252;9.592;2022-11-09T17:37:19;11.90;99.90
9049;DHT22;4559;47.252;9.592;2022-11-09T17:39:44;11.90;99.90
9049;DHT22;4559;47.252;9.592;2022-11-09T17:42:10;11.90;99.90
9049;DHT22;4559;47.252;9.592;2022-11-09T17:44:36;11.90;99.90
9049;DHT22;4559;47.252;9.592;2022-11-09T17:47:03;11.80;99.90
9049;DHT22;4559;47.252;9.592;2022-11-09T17:49:29;11.80;99.90
9049;DHT22;4559;47.252;9.592;2022-11-09T17:51:54;11.80;99.90
9049;DHT22;4559;47.252;9.592;2022-11-09T17:54:20;11.80;99.90
9049;DHT22;4559;47.252;9.592;2022-11-09T17:56:46;11.80;99.90
9049;DHT22;4559;47.252;9.592;2022-11-09T17:59:11;11.80;99.90
9049;DHT22;4559;47.252;9.592;2022-11-09T18:01:37;11.80;99.90
9049;DHT22;4559;47.252;9.592;2022-11-09T18:04:06;11.80;99.90
9049;DHT22;4559;47.252;9.592;2022-11-09T18:06:32;11.80;99.90